PWSweather.com
Personal Weather Stations
Station Observations
CANDIOTINO
Barrio Candioti Norte, Santa FeAR 3000

Barrio Candioti NorteSanta FeAR 3000

Lat: -31.632778, Lon: -60.695556

Elevation: 69

Station Type: WH-1081

http://www.eltiempoensantafe.com.ar

High Low Average
Temperature 84.4°F29.1°C 51.1°F10.6°C 65.5°F18.6°C
Dew Point 49.6°F9.8°C 40.8°F4.9°C 45.2°F7.3°C
Winds 6.0 mph 9.7 kmh 0.7 mph 1.1 kmh 3.0 mph ENE4.8 kmh ENE
Wind Gusts 12.1 mph19.5 kmh 2.2 mph3.5 kmh 7.0 mph11.3 kmh
Humidity 71% 25% 50%
Pressure 29.92 in1013.2 mb 29.75 in1007.5 mb -
Precipitation 0.00 in0.0 mm - -
Hour Temp Dew Point Humidity Winds Wind Gusts Pressure Precip Precip Rate Daily Precip Total
12:00 AM 58.1°F14.5°C 44.7°F7.1°C 61% 2.2 mph NE3.5 kmh NE 6.9 mph11.1 kmh 29.89 in1012.2 mb 0.00 in0.0 mm 0.00 in0.0 mm 0.00 in0.0 mm
12:15 AM 57.6°F14.2°C 43.8°F6.6°C 60% 2.2 mph NE3.5 kmh NE 7.6 mph12.2 kmh 29.89 in1012.2 mb 0.00 in0.0 mm 0.00 in0.0 mm 0.00 in0.0 mm
12:30 AM 56.8°F13.8°C 43.5°F6.4°C 61% 3.1 mph NE5.0 kmh NE 7.6 mph12.2 kmh 29.89 in1012.2 mb 0.00 in0.0 mm 0.00 in0.0 mm 0.00 in0.0 mm
12:45 AM 56.5°F13.6°C 42.8°F6.0°C 60% 4.5 mph NNE7.2 kmh NNE 9.2 mph14.8 kmh 29.90 in1012.5 mb 0.00 in0.0 mm 0.00 in0.0 mm 0.00 in0.0 mm
01:00 AM 56.1°F13.4°C 42.4°F5.8°C 60% 3.8 mph N6.1 kmh N 7.6 mph12.2 kmh 29.90 in1012.5 mb 0.00 in0.0 mm 0.00 in0.0 mm 0.00 in0.0 mm
01:15 AM 55.8°F13.2°C 42.1°F5.6°C 60% 2.2 mph NNE3.5 kmh NNE 7.6 mph12.2 kmh 29.89 in1012.2 mb 0.00 in0.0 mm 0.00 in0.0 mm 0.00 in0.0 mm
01:30 AM 55.6°F13.1°C 41.9°F5.5°C 60% 3.1 mph NNE5.0 kmh NNE 7.6 mph12.2 kmh 29.89 in1012.2 mb 0.00 in0.0 mm 0.00 in0.0 mm 0.00 in0.0 mm
01:45 AM 55.4°F13.0°C 42.2°F5.7°C 61% 3.1 mph N5.0 kmh N 9.2 mph14.8 kmh 29.89 in1012.2 mb 0.00 in0.0 mm 0.00 in0.0 mm 0.00 in0.0 mm
02:00 AM 55.2°F12.9°C 42.4°F5.8°C 62% 3.8 mph N6.1 kmh N 8.3 mph13.4 kmh 29.89 in1012.2 mb 0.00 in0.0 mm 0.00 in0.0 mm 0.00 in0.0 mm
02:15 AM 55.0°F12.8°C 42.3°F5.7°C 62% 3.8 mph N6.1 kmh N 11.4 mph18.3 kmh 29.89 in1012.2 mb 0.00 in0.0 mm 0.00 in0.0 mm 0.00 in0.0 mm
02:30 AM 54.7°F12.6°C 41.5°F5.3°C 61% 3.8 mph N6.1 kmh N 8.3 mph13.4 kmh 29.89 in1012.2 mb 0.00 in0.0 mm 0.00 in0.0 mm 0.00 in0.0 mm
02:45 AM 54.5°F12.5°C 41.8°F5.4°C 62% 4.5 mph N7.2 kmh N 9.2 mph14.8 kmh 29.88 in1011.9 mb 0.00 in0.0 mm 0.00 in0.0 mm 0.00 in0.0 mm
03:00 AM 54.3°F12.4°C 41.6°F5.3°C 62% 3.8 mph NNE6.1 kmh NNE 10.7 mph17.2 kmh 29.87 in1011.5 mb 0.00 in0.0 mm 0.00 in0.0 mm 0.00 in0.0 mm
03:15 AM 54.1°F12.3°C 41.4°F5.2°C 62% 2.2 mph N3.5 kmh N 7.6 mph12.2 kmh 29.87 in1011.5 mb 0.00 in0.0 mm 0.00 in0.0 mm 0.00 in0.0 mm
03:30 AM 54.0°F12.2°C 41.2°F5.1°C 62% 3.1 mph N5.0 kmh N 8.3 mph13.4 kmh 29.87 in1011.5 mb 0.00 in0.0 mm 0.00 in0.0 mm 0.00 in0.0 mm
03:45 AM 53.4°F11.9°C 41.6°F5.3°C 64% 3.1 mph NNE5.0 kmh NNE 9.2 mph14.8 kmh 29.86 in1011.2 mb 0.00 in0.0 mm 0.00 in0.0 mm 0.00 in0.0 mm
04:00 AM 53.2°F11.8°C 41.4°F5.2°C 64% 3.8 mph NNE6.1 kmh NNE 8.3 mph13.4 kmh 29.86 in1011.2 mb 0.00 in0.0 mm 0.00 in0.0 mm 0.00 in0.0 mm
04:15 AM 53.1°F11.7°C 41.2°F5.1°C 64% 3.8 mph NE6.1 kmh NE 7.6 mph12.2 kmh 29.86 in1011.2 mb 0.00 in0.0 mm 0.00 in0.0 mm 0.00 in0.0 mm
04:30 AM 52.7°F11.5°C 41.3°F5.2°C 65% 2.2 mph N3.5 kmh N 8.3 mph13.4 kmh 29.86 in1011.2 mb 0.00 in0.0 mm 0.00 in0.0 mm 0.00 in0.0 mm
04:45 AM 52.5°F11.4°C 41.1°F5.1°C 65% 3.1 mph N5.0 kmh N 9.8 mph15.8 kmh 29.87 in1011.5 mb 0.00 in0.0 mm 0.00 in0.0 mm 0.00 in0.0 mm
05:00 AM 52.2°F11.2°C 40.8°F4.9°C 65% 3.8 mph N6.1 kmh N 6.0 mph9.7 kmh 29.87 in1011.5 mb 0.00 in0.0 mm 0.00 in0.0 mm 0.00 in0.0 mm
05:15 AM 51.8°F11.0°C 40.8°F4.9°C 66% 0.7 mph NNE1.1 kmh NNE 4.5 mph7.2 kmh 29.87 in1011.5 mb 0.00 in0.0 mm 0.00 in0.0 mm 0.00 in0.0 mm
05:30 AM 51.6°F10.9°C 41.4°F5.2°C 68% 3.1 mph N5.0 kmh N 6.0 mph9.7 kmh 29.86 in1011.2 mb 0.00 in0.0 mm 0.00 in0.0 mm 0.00 in0.0 mm
05:45 AM 51.4°F10.8°C 42.0°F5.6°C 70% 1.6 mph NNE2.6 kmh NNE 4.5 mph7.2 kmh 29.87 in1011.5 mb 0.00 in0.0 mm 0.00 in0.0 mm 0.00 in0.0 mm
06:00 AM 51.6°F10.9°C 42.2°F5.7°C 70% 3.1 mph N5.0 kmh N 6.0 mph9.7 kmh 29.87 in1011.5 mb 0.00 in0.0 mm 0.00 in0.0 mm 0.00 in0.0 mm
06:15 AM 51.8°F11.0°C 41.6°F5.3°C 68% 3.1 mph NNE5.0 kmh NNE 6.9 mph11.1 kmh 29.87 in1011.5 mb 0.00 in0.0 mm 0.00 in0.0 mm 0.00 in0.0 mm
06:30 AM 51.6°F10.9°C 41.8°F5.4°C 69% 1.6 mph N2.6 kmh N 7.6 mph12.2 kmh 29.88 in1011.9 mb 0.00 in0.0 mm 0.00 in0.0 mm 0.00 in0.0 mm
06:45 AM 51.4°F10.8°C 42.0°F5.6°C 70% 2.2 mph NNE3.5 kmh NNE 6.0 mph9.7 kmh 29.88 in1011.9 mb 0.00 in0.0 mm 0.00 in0.0 mm 0.00 in0.0 mm
07:00 AM 51.4°F10.8°C 42.0°F5.6°C 70% 0.7 mph NNW1.1 kmh NNW 7.6 mph12.2 kmh 29.88 in1011.9 mb 0.00 in0.0 mm 0.00 in0.0 mm 0.00 in0.0 mm
07:15 AM 51.3°F10.7°C 41.8°F5.4°C 70% 1.6 mph N2.6 kmh N 6.0 mph9.7 kmh 29.89 in1012.2 mb 0.00 in0.0 mm 0.00 in0.0 mm 0.00 in0.0 mm
07:30 AM 51.1°F10.6°C 42.0°F5.6°C 71% 3.8 mph NNE6.1 kmh NNE 4.5 mph7.2 kmh 29.89 in1012.2 mb 0.00 in0.0 mm 0.00 in0.0 mm 0.00 in0.0 mm
07:45 AM 51.3°F10.7°C 42.2°F5.7°C 71% 3.1 mph NE5.0 kmh NE 4.5 mph7.2 kmh 29.89 in1012.2 mb 0.00 in0.0 mm 0.00 in0.0 mm 0.00 in0.0 mm
08:00 AM 52.9°F11.6°C 42.6°F5.9°C 68% 2.2 mph ENE3.5 kmh ENE 6.0 mph9.7 kmh 29.90 in1012.5 mb 0.00 in0.0 mm 0.00 in0.0 mm 0.00 in0.0 mm
08:15 AM 54.1°F12.3°C 43.0°F6.1°C 66% 2.2 mph NE3.5 kmh NE 6.0 mph9.7 kmh 29.90 in1012.5 mb 0.00 in0.0 mm 0.00 in0.0 mm 0.00 in0.0 mm
08:30 AM 54.9°F12.7°C 44.1°F6.7°C 67% 3.8 mph ENE6.1 kmh ENE 6.9 mph11.1 kmh 29.90 in1012.5 mb 0.00 in0.0 mm 0.00 in0.0 mm 0.00 in0.0 mm
08:45 AM 55.8°F13.2°C 44.6°F7.0°C 66% 3.8 mph ENE6.1 kmh ENE 6.9 mph11.1 kmh 29.90 in1012.5 mb 0.00 in0.0 mm 0.00 in0.0 mm 0.00 in0.0 mm
09:00 AM 56.5°F13.6°C 44.9°F7.2°C 65% 2.2 mph ENE3.5 kmh ENE 10.7 mph17.2 kmh 29.91 in1012.9 mb 0.00 in0.0 mm 0.00 in0.0 mm 0.00 in0.0 mm
09:15 AM 57.0°F13.9°C 44.6°F7.0°C 63% 4.5 mph NE7.2 kmh NE 8.3 mph13.4 kmh 29.91 in1012.9 mb 0.00 in0.0 mm 0.00 in0.0 mm 0.00 in0.0 mm
09:30 AM 58.6°F14.8°C 44.8°F7.1°C 60% 3.8 mph NE6.1 kmh NE 8.3 mph13.4 kmh 29.91 in1012.9 mb 0.00 in0.0 mm 0.00 in0.0 mm 0.00 in0.0 mm
09:45 AM 60.3°F15.7°C 45.4°F7.4°C 58% 3.1 mph NE5.0 kmh NE 9.2 mph14.8 kmh 29.92 in1013.2 mb 0.00 in0.0 mm 0.00 in0.0 mm 0.00 in0.0 mm
10:00 AM 61.0°F16.1°C 43.7°F6.5°C 53% 4.5 mph NE7.2 kmh NE 12.1 mph19.5 kmh 29.91 in1012.9 mb 0.00 in0.0 mm 0.00 in0.0 mm 0.00 in0.0 mm
10:15 AM 62.1°F16.7°C 44.7°F7.1°C 53% 3.8 mph N6.1 kmh N 10.7 mph17.2 kmh 29.91 in1012.9 mb 0.00 in0.0 mm 0.00 in0.0 mm 0.00 in0.0 mm
10:30 AM 63.1°F17.3°C 44.7°F7.1°C 51% 3.8 mph NNE6.1 kmh NNE 12.1 mph19.5 kmh 29.91 in1012.9 mb 0.00 in0.0 mm 0.00 in0.0 mm 0.00 in0.0 mm
10:45 AM 65.1°F18.4°C 45.0°F7.2°C 48% 3.1 mph NNE5.0 kmh NNE 9.2 mph14.8 kmh 29.91 in1012.9 mb 0.00 in0.0 mm 0.00 in0.0 mm 0.00 in0.0 mm
11:00 AM 66.7°F19.3°C 45.3°F7.4°C 46% 2.2 mph NE3.5 kmh NE 8.3 mph13.4 kmh 29.91 in1012.9 mb 0.00 in0.0 mm 0.00 in0.0 mm 0.00 in0.0 mm
11:15 AM 67.1°F19.5°C 46.2°F7.9°C 47% 3.8 mph E6.1 kmh E 8.3 mph13.4 kmh 29.91 in1012.9 mb 0.00 in0.0 mm 0.00 in0.0 mm 0.00 in0.0 mm
11:30 AM 68.9°F20.5°C 46.7°F8.2°C 45% 3.8 mph NNE6.1 kmh NNE 9.2 mph14.8 kmh 29.90 in1012.5 mb 0.00 in0.0 mm 0.00 in0.0 mm 0.00 in0.0 mm
11:45 AM 69.3°F20.7°C 47.0°F8.3°C 45% 3.8 mph NNE6.1 kmh NNE 8.3 mph13.4 kmh 29.90 in1012.5 mb 0.00 in0.0 mm 0.00 in0.0 mm 0.00 in0.0 mm
12:00 PM 71.1°F21.7°C 46.8°F8.2°C 42% 3.8 mph NE6.1 kmh NE 8.3 mph13.4 kmh 29.89 in1012.2 mb 0.00 in0.0 mm 0.00 in0.0 mm 0.00 in0.0 mm
12:15 PM 72.1°F22.3°C 47.2°F8.4°C 41% 3.1 mph ENE5.0 kmh ENE 7.6 mph12.2 kmh 29.89 in1012.2 mb 0.00 in0.0 mm 0.00 in0.0 mm 0.00 in0.0 mm
12:30 PM 73.4°F23.0°C 47.6°F8.7°C 40% 3.8 mph NE6.1 kmh NE 6.9 mph11.1 kmh 29.89 in1012.2 mb 0.00 in0.0 mm 0.00 in0.0 mm 0.00 in0.0 mm
12:45 PM 74.7°F23.7°C 48.1°F8.9°C 39% 3.1 mph NE5.0 kmh NE 7.6 mph12.2 kmh 29.87 in1011.5 mb 0.00 in0.0 mm 0.00 in0.0 mm 0.00 in0.0 mm
01:00 PM 75.9°F24.4°C 48.5°F9.2°C 38% 3.1 mph NE5.0 kmh NE 7.6 mph12.2 kmh 29.86 in1011.2 mb 0.00 in0.0 mm 0.00 in0.0 mm 0.00 in0.0 mm
01:15 PM 77.9°F25.5°C 48.1°F8.9°C 35% 2.2 mph N3.5 kmh N 8.3 mph13.4 kmh 29.86 in1011.2 mb 0.00 in0.0 mm 0.00 in0.0 mm 0.00 in0.0 mm
01:30 PM 78.4°F25.8°C 47.8°F8.8°C 34% 2.2 mph NNE3.5 kmh NNE 9.2 mph14.8 kmh 29.84 in1010.5 mb 0.00 in0.0 mm 0.00 in0.0 mm 0.00 in0.0 mm
01:45 PM 79.0°F26.1°C 45.8°F7.7°C 31% 1.6 mph N2.6 kmh N 12.1 mph19.5 kmh 29.84 in1010.5 mb 0.00 in0.0 mm 0.00 in0.0 mm 0.00 in0.0 mm
02:00 PM 80.4°F26.9°C 45.3°F7.4°C 29% 2.2 mph N3.5 kmh N 10.7 mph17.2 kmh 29.84 in1010.5 mb 0.00 in0.0 mm 0.00 in0.0 mm 0.00 in0.0 mm
02:15 PM 80.8°F27.1°C 44.7°F7.1°C 28% 3.1 mph N5.0 kmh N 9.8 mph15.8 kmh 29.82 in1009.8 mb 0.00 in0.0 mm 0.00 in0.0 mm 0.00 in0.0 mm
02:30 PM 83.3°F28.5°C 49.6°F9.8°C 31% 4.5 mph NE7.2 kmh NE 6.9 mph11.1 kmh 29.81 in1009.5 mb 0.00 in0.0 mm 0.00 in0.0 mm 0.00 in0.0 mm
02:45 PM 83.3°F28.5°C 49.6°F9.8°C 31% 4.5 mph NE7.2 kmh NE 6.0 mph9.7 kmh 29.81 in1009.5 mb 0.00 in0.0 mm 0.00 in0.0 mm 0.00 in0.0 mm
03:00 PM 82.8°F28.2°C 48.2°F9.0°C 30% 2.2 mph NE3.5 kmh NE 6.9 mph11.1 kmh 29.80 in1009.1 mb 0.00 in0.0 mm 0.00 in0.0 mm 0.00 in0.0 mm
03:15 PM 81.9°F27.7°C 42.6°F5.9°C 25% 4.5 mph ENE7.2 kmh ENE 9.8 mph15.8 kmh 29.79 in1008.8 mb 0.00 in0.0 mm 0.00 in0.0 mm 0.00 in0.0 mm
03:30 PM 82.9°F28.3°C 47.5°F8.6°C 29% 4.5 mph NE7.2 kmh NE 9.8 mph15.8 kmh 29.78 in1008.5 mb 0.00 in0.0 mm 0.00 in0.0 mm 0.00 in0.0 mm
03:45 PM 82.6°F28.1°C 45.3°F7.4°C 27% 6.0 mph ENE9.7 kmh ENE 8.3 mph13.4 kmh 29.78 in1008.5 mb 0.00 in0.0 mm 0.00 in0.0 mm 0.00 in0.0 mm
04:00 PM 82.0°F27.8°C 42.8°F6.0°C 25% 3.8 mph ENE6.1 kmh ENE 11.4 mph18.3 kmh 29.78 in1008.5 mb 0.00 in0.0 mm 0.00 in0.0 mm 0.00 in0.0 mm
04:15 PM 82.8°F28.2°C 47.3°F8.5°C 29% 3.8 mph E6.1 kmh E 9.2 mph14.8 kmh 29.78 in1008.5 mb 0.00 in0.0 mm 0.00 in0.0 mm 0.00 in0.0 mm
04:30 PM 82.8°F28.2°C 47.3°F8.5°C 29% 6.0 mph ENE9.7 kmh ENE 9.2 mph14.8 kmh 29.77 in1008.1 mb 0.00 in0.0 mm 0.00 in0.0 mm 0.00 in0.0 mm
04:45 PM 84.2°F29.0°C 47.6°F8.7°C 28% 2.2 mph NE3.5 kmh NE 7.6 mph12.2 kmh 29.77 in1008.1 mb 0.00 in0.0 mm 0.00 in0.0 mm 0.00 in0.0 mm
05:00 PM 82.9°F28.3°C 49.2°F9.6°C 31% 3.8 mph ENE6.1 kmh ENE 8.3 mph13.4 kmh 29.77 in1008.1 mb 0.00 in0.0 mm 0.00 in0.0 mm 0.00 in0.0 mm
05:15 PM 83.3°F28.5°C 47.8°F8.8°C 29% 3.1 mph NE5.0 kmh NE 8.3 mph13.4 kmh 29.76 in1007.8 mb 0.00 in0.0 mm 0.00 in0.0 mm 0.00 in0.0 mm
05:30 PM 84.4°F29.1°C 45.8°F7.7°C 26% 2.2 mph NNE3.5 kmh NNE 6.0 mph9.7 kmh 29.76 in1007.8 mb 0.00 in0.0 mm 0.00 in0.0 mm 0.00 in0.0 mm
05:45 PM 82.4°F28.0°C 47.0°F8.3°C 29% 2.2 mph NE3.5 kmh NE 6.9 mph11.1 kmh 29.75 in1007.5 mb 0.00 in0.0 mm 0.00 in0.0 mm 0.00 in0.0 mm
06:00 PM 81.0°F27.2°C 48.4°F9.1°C 32% 3.1 mph ENE5.0 kmh ENE 6.9 mph11.1 kmh 29.76 in1007.8 mb 0.00 in0.0 mm 0.00 in0.0 mm 0.00 in0.0 mm
06:15 PM 79.3°F26.3°C 48.6°F9.2°C 34% 3.1 mph ENE5.0 kmh ENE 5.4 mph8.7 kmh 29.75 in1007.5 mb 0.00 in0.0 mm 0.00 in0.0 mm 0.00 in0.0 mm
06:30 PM 77.0°F25.0°C 48.8°F9.3°C 37% 2.2 mph NE3.5 kmh NE 6.0 mph9.7 kmh 29.75 in1007.5 mb 0.00 in0.0 mm 0.00 in0.0 mm 0.00 in0.0 mm
06:45 PM 74.5°F23.6°C 49.3°F9.6°C 41% 2.2 mph ENE3.5 kmh ENE 5.4 mph8.7 kmh 29.75 in1007.5 mb 0.00 in0.0 mm 0.00 in0.0 mm 0.00 in0.0 mm
07:00 PM 73.2°F22.9°C 48.8°F9.3°C 42% 0.7 mph ENE1.1 kmh ENE 5.4 mph8.7 kmh 29.76 in1007.8 mb 0.00 in0.0 mm 0.00 in0.0 mm 0.00 in0.0 mm
07:15 PM 72.0°F22.2°C 48.3°F9.1°C 43% 1.6 mph ENE2.6 kmh ENE 3.8 mph6.1 kmh 29.76 in1007.8 mb 0.00 in0.0 mm 0.00 in0.0 mm 0.00 in0.0 mm
07:30 PM 71.1°F21.7°C 49.3°F9.6°C 46% 1.6 mph ENE2.6 kmh ENE 3.8 mph6.1 kmh 29.75 in1007.5 mb 0.00 in0.0 mm 0.00 in0.0 mm 0.00 in0.0 mm
07:45 PM 70.2°F21.2°C 48.4°F9.1°C 46% 0.7 mph E1.1 kmh E 3.8 mph6.1 kmh 29.77 in1008.1 mb 0.00 in0.0 mm 0.00 in0.0 mm 0.00 in0.0 mm
08:00 PM 69.6°F20.9°C 49.1°F9.5°C 48% 0.7 mph ESE1.1 kmh ESE 3.8 mph6.1 kmh 29.77 in1008.1 mb 0.00 in0.0 mm 0.00 in0.0 mm 0.00 in0.0 mm
08:15 PM 69.8°F21.0°C 48.1°F8.9°C 46% 0.7 mph E1.1 kmh E 5.4 mph8.7 kmh 29.76 in1007.8 mb 0.00 in0.0 mm 0.00 in0.0 mm 0.00 in0.0 mm
08:30 PM 69.6°F20.9°C 47.9°F8.8°C 46% 0.7 mph E1.1 kmh E 4.5 mph7.2 kmh 29.76 in1007.8 mb 0.00 in0.0 mm 0.00 in0.0 mm 0.00 in0.0 mm
08:45 PM 69.8°F21.0°C 46.9°F8.3°C 44% 2.2 mph ESE3.5 kmh ESE 5.4 mph8.7 kmh 29.76 in1007.8 mb 0.00 in0.0 mm 0.00 in0.0 mm 0.00 in0.0 mm
09:00 PM 69.1°F20.6°C 47.5°F8.6°C 46% 2.2 mph E3.5 kmh E 5.4 mph8.7 kmh 29.76 in1007.8 mb 0.00 in0.0 mm 0.00 in0.0 mm 0.00 in0.0 mm
09:15 PM 68.5°F20.3°C 47.5°F8.6°C 47% 3.1 mph E5.0 kmh E 6.9 mph11.1 kmh 29.75 in1007.5 mb 0.00 in0.0 mm 0.00 in0.0 mm 0.00 in0.0 mm
09:30 PM 67.6°F19.8°C 47.8°F8.8°C 49% 0.7 mph ENE1.1 kmh ENE 4.5 mph7.2 kmh 29.76 in1007.8 mb 0.00 in0.0 mm 0.00 in0.0 mm 0.00 in0.0 mm
09:45 PM 67.1°F19.5°C 47.9°F8.8°C 50% 0.7 mph NNE1.1 kmh NNE 3.1 mph5.0 kmh 29.76 in1007.8 mb 0.00 in0.0 mm 0.00 in0.0 mm 0.00 in0.0 mm
10:00 PM 66.6°F19.2°C 47.9°F8.8°C 51% 0.7 mph E1.1 kmh E 5.4 mph8.7 kmh 29.76 in1007.8 mb 0.00 in0.0 mm 0.00 in0.0 mm 0.00 in0.0 mm
10:15 PM 66.7°F19.3°C 47.0°F8.3°C 49% 1.6 mph E2.6 kmh E 4.5 mph7.2 kmh 29.77 in1008.1 mb 0.00 in0.0 mm 0.00 in0.0 mm 0.00 in0.0 mm
10:30 PM 66.2°F19.0°C 47.0°F8.3°C 50% 0.7 mph NE1.1 kmh NE 2.2 mph3.5 kmh 29.78 in1008.5 mb 0.00 in0.0 mm 0.00 in0.0 mm 0.00 in0.0 mm
10:45 PM 65.7°F18.7°C 47.6°F8.7°C 52% 0.7 mph E1.1 kmh E 2.2 mph3.5 kmh 29.78 in1008.5 mb 0.00 in0.0 mm 0.00 in0.0 mm 0.00 in0.0 mm
11:00 PM 65.3°F18.5°C 47.7°F8.7°C 53% 1.6 mph ENE2.6 kmh ENE 3.1 mph5.0 kmh 29.79 in1008.8 mb 0.00 in0.0 mm 0.00 in0.0 mm 0.00 in0.0 mm
11:15 PM 65.3°F18.5°C 47.7°F8.7°C 53% 0.7 mph NE1.1 kmh NE 5.4 mph8.7 kmh 29.79 in1008.8 mb 0.00 in0.0 mm 0.00 in0.0 mm 0.00 in0.0 mm
11:30 PM 64.9°F18.3°C 47.9°F8.8°C 54% 3.1 mph ENE5.0 kmh ENE 5.4 mph8.7 kmh 29.79 in1008.8 mb 0.00 in0.0 mm 0.00 in0.0 mm 0.00 in0.0 mm
11:45 PM 64.4°F18.0°C 47.9°F8.8°C 55% 1.6 mph E2.6 kmh E 3.8 mph6.1 kmh 29.79 in1008.8 mb 0.00 in0.0 mm 0.00 in0.0 mm 0.00 in0.0 mm